Igarka, Russia
Current Conditions -  °F | °C
As of 5:30 AM on Tuesday 21 Oct 2014 (Local Time) from USNN Reporting Station
Moderate Snow Moderate Snow  
Wind Chill: 15°   Ceiling: 1700
Heat Index: 23°   Visibility: 1mi
Dew Point: 23°   Wind: 7mph
Humidity: 100%   Direction: 30°NNE
Pressure: 29.21"   Gusts: NA
Location:  67.47°N, 86.58°E
Report Text: USNN 202230Z 03003MPS 1600 SN OVC017 M05/M05 Q0989 TEMPO 0800+SN VV003 RMK QFE738 03490833
Loading
Personal Weather Stations






























Interactive Weather Map
Tropical Storm Tracking
New forecast layout! Learn more

10-Day Weather Forecast

Advertisements
Track Severe Weather on mobile